Time;durP1;ratioP1;P1;durP2;ratioP2;P2;SDS_P1;SDS_P2;PMS_P1;PMS_P2;Temp;Humidity;BMP_temperature;BMP_pressure;BME280_temperature;BME280_humidity;BME280_pressure;Samples;Min_cycle;Max_cycle;Signal;HPM_P1;HPM_P2
2021/07/10 00:00:23;;;;;;;;;10.00;9.75;;;;;18.38;63.84;101187.06;4975752;28;49125;-60
2021/07/10 00:02:49;;;;;;;;;12.00;11.50;;;;;18.38;63.63;101182.56;4974903;28;69998;-59
2021/07/10 00:05:15;;;;;;;;;13.25;11.00;;;;;18.37;63.12;101177.44;4975074;28;67505;-59
2021/07/10 00:07:40;;;;;;;;;17.00;11.50;;;;;18.35;63.82;101177.59;4975773;28;45343;-60
2021/07/10 00:10:08;;;;;;;;;17.00;14.00;;;;;18.35;63.32;101166.94;4975843;28;45220;-59
2021/07/10 00:12:33;;;;;;;;;17.75;15.50;;;;;18.35;63.20;101164.28;4975624;28;45314;-60
2021/07/10 00:14:59;;;;;;;;;12.00;12.00;;;;;18.35;63.34;101152.81;4974909;28;67453;-59
2021/07/10 00:17:24;;;;;;;;;11.00;10.75;;;;;18.34;63.65;101146.66;4974983;28;61669;-60
2021/07/10 00:19:52;;;;;;;;;11.00;10.00;;;;;18.35;63.34;101142.19;4974421;28;68278;-59
2021/07/10 00:22:18;;;;;;;;;11.75;10.00;;;;;18.34;63.51;101145.84;4975833;28;45313;-60
2021/07/10 00:24:44;;;;;;;;;10.50;8.50;;;;;18.30;63.74;101142.69;4975474;28;46191;-60
2021/07/10 00:27:09;;;;;;;;;12.00;11.75;;;;;18.26;63.70;101141.41;4975614;28;45303;-60
2021/07/10 00:29:34;;;;;;;;;11.25;10.00;;;;;18.26;64.04;101151.19;4977507;28;46935;-60
2021/07/10 00:32:00;;;;;;;;;11.25;10.25;;;;;18.24;64.00;101146.88;4977386;28;45576;-60
2021/07/10 00:34:25;;;;;;;;;12.00;11.00;;;;;18.23;63.85;101139.91;4974415;28;68308;-60
2021/07/10 00:36:51;;;;;;;;;13.25;11.50;;;;;18.24;64.11;101130.09;4974489;28;63740;-59
2021/07/10 00:39:16;;;;;;;;;14.75;11.00;;;;;18.23;64.03;101128.44;4975008;28;50571;-59
2021/07/10 00:41:41;;;;;;;;;11.00;9.75;;;;;18.22;63.93;101124.94;4974266;28;66638;-60
2021/07/10 00:44:07;;;;;;;;;16.00;10.75;;;;;18.20;63.93;101118.97;4974837;28;46259;-60
2021/07/10 00:46:32;;;;;;;;;15.00;12.25;;;;;18.20;63.90;101118.97;4975228;28;45315;-60
2021/07/10 00:48:58;;;;;;;;;14.50;13.00;;;;;18.19;63.75;101121.81;4974565;28;45304;-59
2021/07/10 00:51:23;;;;;;;;;13.75;12.00;;;;;18.17;63.75;101113.97;4974376;28;65773;-60
2021/07/10 00:53:49;;;;;;;;;15.00;12.50;;;;;18.17;63.99;101113.97;4974188;28;69361;-59
2021/07/10 00:56:14;;;;;;;;;14.00;12.25;;;;;18.16;64.03;101108.84;4974981;28;45442;-60
2021/07/10 00:58:39;;;;;;;;;13.50;11.00;;;;;18.15;64.11;101113.31;4973913;28;45342;-60
2021/07/10 01:01:05;;;;;;;;;12.00;10.50;;;;;18.14;64.15;101109.00;4956831;28;66216;-59
2021/07/10 01:03:31;;;;;;;;;11.75;11.00;;;;;18.14;64.32;101106.34;4974768;28;46065;-60
2021/07/10 01:05:57;;;;;;;;;13.50;11.00;;;;;18.13;64.28;101104.69;4974915;28;45987;-60
2021/07/10 01:08:22;;;;;;;;;11.50;11.50;;;;;18.14;64.16;101103.69;4976786;28;45233;-60
2021/07/10 01:10:47;;;;;;;;;10.75;10.75;;;;;18.15;64.09;101101.88;4973272;28;60754;-60
2021/07/10 01:13:13;;;;;;;;;10.50;9.25;;;;;18.14;64.43;101095.72;4972929;28;71006;-60
2021/07/10 01:15:38;;;;;;;;;12.50;12.00;;;;;18.12;64.25;101089.72;4973376;28;45264;-60
2021/07/10 01:18:04;;;;;;;;;11.75;11.25;;;;;18.11;64.18;101097.91;4974144;28;65183;-59
2021/07/10 01:20:29;;;;;;;;;14.25;11.50;;;;;18.07;64.30;101094.72;4972596;28;65404;-60
2021/07/10 01:22:56;;;;;;;;;11.25;11.00;;;;;18.04;64.42;101087.09;4974457;28;46119;-59
2021/07/10 01:25:22;;;;;;;;;15.00;14.00;;;;;18.00;64.31;101085.81;4974977;28;45668;-60
2021/07/10 01:27:49;;;;;;;;;15.50;12.00;;;;;18.00;64.45;101085.81;4974812;28;45377;-60
2021/07/10 01:30:15;;;;;;;;;14.00;10.25;;;;;17.98;64.30;101085.13;4974865;28;45560;-60
2021/07/10 01:32:41;;;;;;;;;16.00;13.50;;;;;17.95;64.50;101079.16;4974729;28;45506;-59
2021/07/10 01:35:08;;;;;;;;;16.00;13.25;;;;;17.95;64.45;101075.66;4974703;28;45213;-60
2021/07/10 01:37:33;;;;;;;;;12.00;10.50;;;;;17.95;64.47;101072.97;4974921;28;45337;-59
2021/07/10 01:39:58;;;;;;;;;10.25;10.25;;;;;17.92;64.45;101063.53;4973951;28;66404;-60
2021/07/10 01:42:24;;;;;;;;;11.25;10.50;;;;;17.92;64.51;101068.84;4973505;28;71179;-60
2021/07/10 01:44:51;;;;;;;;;12.75;11.00;;;;;17.93;64.45;101059.88;4973850;28;63224;-60
2021/07/10 01:47:16;;;;;;;;;7.50;7.50;;;;;17.90;64.56;101059.38;4974792;28;45233;-60
2021/07/10 01:49:42;;;;;;;;;11.75;11.25;;;;;17.88;64.65;101053.41;4974573;28;45498;-59
2021/07/10 01:52:07;;;;;;;;;13.25;10.50;;;;;17.88;64.27;101056.06;4973566;28;70861;-60
2021/07/10 01:54:32;;;;;;;;;14.50;10.50;;;;;17.86;64.53;101055.41;4973334;28;73315;-60
2021/07/10 01:56:58;;;;;;;;;14.00;10.25;;;;;17.84;64.29;101050.28;4974669;28;45884;-60
2021/07/10 01:59:23;;;;;;;;;10.25;10.25;;;;;17.83;64.47;101039.78;4974511;28;45347;-60
2021/07/10 02:01:49;;;;;;;;;13.00;10.50;;;;;17.80;64.63;101033.81;4972063;28;71285;-60
2021/07/10 02:04:18;;;;;;;;;15.25;13.50;;;;;17.80;64.71;101028.50;4974236;28;45423;-60
2021/07/10 02:06:43;;;;;;;;;19.00;14.75;;;;;17.80;64.71;101025.03;4974534;28;45347;-60
2021/07/10 02:09:09;;;;;;;;;33.00;29.25;;;;;17.79;64.59;101023.38;4974179;28;45481;-59
2021/07/10 02:11:35;;;;;;;;;30.75;28.25;;;;;17.75;64.78;101022.88;4974088;28;48407;-60
2021/07/10 02:14:00;;;;;;;;;24.25;21.00;;;;;17.73;64.91;101016.94;4974156;28;45284;-60
2021/07/10 02:16:26;;;;;;;;;20.00;20.00;;;;;17.72;65.14;101006.44;4973318;28;68531;-60
2021/07/10 02:18:51;;;;;;;;;16.75;13.75;;;;;17.71;65.04;101007.44;4973224;28;67043;-60
2021/07/10 02:21:16;;;;;;;;;18.00;15.75;;;;;17.72;65.18;101006.44;4973615;28;52650;-61
2021/07/10 02:23:42;;;;;;;;;20.00;16.75;;;;;17.74;65.16;101007.97;4973026;28;70234;-60
2021/07/10 02:26:07;;;;;;;;;16.25;14.25;;;;;17.74;65.16;101001.78;4973347;28;63638;-60
2021/07/10 02:28:32;;;;;;;;;16.00;13.00;;;;;17.74;65.21;101002.63;4973177;28;69021;-59
2021/07/10 02:30:58;;;;;;;;;16.25;14.00;;;;;17.76;64.99;101005.09;4973965;28;46362;-60
2021/07/10 02:33:23;;;;;;;;;14.75;13.25;;;;;17.76;65.00;101005.09;4972928;28;69738;-59
2021/07/10 02:35:49;;;;;;;;;16.25;14.00;;;;;17.76;64.91;101003.28;4973767;28;45285;-60
2021/07/10 02:38:15;;;;;;;;;11.50;10.00;;;;;17.77;64.88;101004.09;4973933;28;45343;-60
2021/07/10 02:40:40;;;;;;;;;13.25;12.25;;;;;17.77;65.08;101004.09;4972863;28;71083;-59
2021/07/10 02:43:06;;;;;;;;;15.00;12.75;;;;;17.79;65.04;101002.09;4973757;28;45423;-60
2021/07/10 02:45:31;;;;;;;;;12.50;9.75;;;;;17.80;65.02;101006.44;4973956;28;45351;-60
2021/07/10 02:47:57;;;;;;;;;18.25;16.25;;;;;17.81;65.18;101000.09;4972782;28;65328;-60
2021/07/10 02:50:23;;;;;;;;;16.00;13.50;;;;;17.82;65.16;101004.44;4973536;28;45235;-59
2021/07/10 02:52:49;;;;;;;;;16.25;13.00;;;;;17.83;65.06;101000.78;4973561;28;45758;-59
2021/07/10 02:55:14;;;;;;;;;13.25;11.75;;;;;17.83;64.89;101007.91;4973932;28;45214;-59
2021/07/10 02:57:39;;;;;;;;;14.50;11.50;;;;;17.80;65.13;100993.13;4973796;28;45431;-60
2021/07/10 03:00:10;;;;;;;;;14.50;13.00;;;;;17.83;65.11;100995.44;4973256;28;46299;-59
2021/07/10 03:02:35;;;;;;;;;13.75;12.75;;;;;17.86;65.17;100992.44;4973383;28;45415;-60
2021/07/10 03:05:01;;;;;;;;;14.50;14.50;;;;;17.87;65.28;100988.78;4972839;28;62626;-59
2021/07/10 03:07:26;;;;;;;;;12.50;11.25;;;;;17.87;65.13;100980.81;4973528;28;45288;-60
2021/07/10 03:09:51;;;;;;;;;12.75;12.50;;;;;17.88;65.20;100979.81;4972473;28;71662;-59
2021/07/10 03:12:17;;;;;;;;;15.00;13.25;;;;;17.88;65.17;100979.81;4972975;28;72209;-59
2021/07/10 03:14:42;;;;;;;;;18.25;13.75;;;;;17.89;65.25;100976.16;4976545;28;45478;-58
2021/07/10 03:17:07;;;;;;;;;15.00;11.50;;;;;17.90;65.20;100971.66;4976417;28;46877;-59
2021/07/10 03:19:33;;;;;;;;;16.75;13.75;;;;;17.89;65.09;100976.16;4975335;28;68046;-59
2021/07/10 03:21:58;;;;;;;;;13.00;12.00;;;;;17.86;65.34;100971.19;4975330;28;69850;-60
2021/07/10 03:24:24;;;;;;;;;14.50;12.50;;;;;17.86;65.29;100962.38;4975291;28;68294;-59
2021/07/10 03:26:49;;;;;;;;;14.75;11.50;;;;;17.84;65.44;100965.22;4976436;28;45486;-59
2021/07/10 03:29:14;;;;;;;;;14.25;12.75;;;;;17.81;65.51;100962.91;4975269;28;75297;-60
2021/07/10 03:31:40;;;;;;;;;15.75;13.00;;;;;17.79;65.38;100965.72;4975466;28;63591;-59
2021/07/10 03:34:05;;;;;;;;;16.50;12.75;;;;;17.80;65.37;100953.28;4976260;28;45464;-59
2021/07/10 03:36:30;;;;;;;;;12.50;12.00;;;;;17.79;65.19;100952.44;4975317;28;62141;-59
2021/07/10 03:38:56;;;;;;;;;13.25;12.00;;;;;17.77;65.53;100945.63;4976054;28;45270;-59
2021/07/10 03:41:22;;;;;;;;;13.75;12.00;;;;;17.74;65.38;100941.50;4973903;28;69833;-59
2021/07/10 03:43:47;;;;;;;;;13.50;12.75;;;;;17.75;65.55;100950.31;4976036;28;45429;-60
2021/07/10 03:46:13;;;;;;;;;13.75;13.00;;;;;17.73;65.40;100957.63;4976150;28;45313;-59
2021/07/10 03:48:38;;;;;;;;;15.25;13.25;;;;;17.71;65.65;100957.81;4975542;28;61402;-60
2021/07/10 03:51:04;;;;;;;;;13.50;12.00;;;;;17.69;65.58;100956.31;4976030;28;45442;-59
2021/07/10 03:53:30;;;;;;;;;15.50;12.75;;;;;17.69;65.51;100964.28;4976238;28;45394;-59
2021/07/10 03:55:55;;;;;;;;;14.50;12.00;;;;;17.68;65.83;100952.84;4975051;28;69417;-59
2021/07/10 03:58:20;;;;;;;;;15.25;14.75;;;;;17.70;65.64;100957.97;4975681;28;52067;-59
2021/07/10 04:00:46;;;;;;;;;16.50;15.00;;;;;17.69;65.68;100954.50;4975076;28;64525;-60
2021/07/10 04:03:11;;;;;;;;;15.25;13.50;;;;;17.67;65.49;100951.19;4975149;28;63120;-59
2021/07/10 04:05:37;;;;;;;;;14.50;13.25;;;;;17.64;65.59;100951.53;4975131;28;61703;-60
2021/07/10 04:08:02;;;;;;;;;15.50;13.75;;;;;17.61;65.74;100950.03;4975711;28;46930;-59
2021/07/10 04:10:28;;;;;;;;;10.75;10.00;;;;;17.59;65.66;100949.38;4975661;28;45350;-60
2021/07/10 04:12:53;;;;;;;;;14.25;12.00;;;;;17.58;65.48;100946.88;4974818;28;69189;-60
2021/07/10 04:15:18;;;;;;;;;15.50;13.50;;;;;17.56;65.92;100947.03;4975124;28;60558;-60
2021/07/10 04:17:44;;;;;;;;;17.25;16.25;;;;;17.55;66.10;100953.34;4975495;28;45376;-59
2021/07/10 04:20:10;;;;;;;;;24.50;19.25;;;;;17.55;66.09;100942.72;4975324;28;45272;-58
2021/07/10 04:22:35;;;;;;;;;43.50;35.00;;;;;17.56;66.15;100936.41;4975604;28;45284;-59
2021/07/10 04:25:04;;;;;;;;;43.50;35.75;;;;;17.59;66.10;100935.25;4974499;28;45253;-60
2021/07/10 04:27:32;;;;;;;;;25.25;23.75;;;;;17.61;65.98;100935.91;4975499;28;47298;-59
2021/07/10 04:29:58;;;;;;;;;20.75;17.50;;;;;17.63;65.89;100942.69;4974184;28;45279;-59
2021/07/10 04:32:23;;;;;;;;;12.25;12.25;;;;;17.64;65.99;100940.88;4974770;28;63512;-60
2021/07/10 04:34:48;;;;;;;;;23.75;17.75;;;;;17.66;65.65;100941.53;4974553;28;70213;-59
2021/07/10 04:37:14;;;;;;;;;23.25;19.50;;;;;17.67;65.89;100940.53;4974576;28;65721;-60
2021/07/10 04:39:39;;;;;;;;;17.50;17.50;;;;;17.67;66.02;100943.19;4974613;28;64058;-59
2021/07/10 04:42:05;;;;;;;;;14.50;14.00;;;;;17.70;65.76;100942.00;4974455;28;64626;-60
2021/07/10 04:44:31;;;;;;;;;15.25;13.25;;;;;17.72;65.69;100940.00;4975313;28;45353;-60
2021/07/10 04:46:56;;;;;;;;;19.00;14.50;;;;;17.73;65.94;100941.66;4975171;28;46378;-59
2021/07/10 04:49:22;;;;;;;;;14.25;13.50;;;;;17.75;65.94;100948.44;4975386;28;45311;-59
2021/07/10 04:51:47;;;;;;;;;13.25;13.00;;;;;17.76;65.85;100939.47;4975383;28;45446;-60
2021/07/10 04:54:13;;;;;;;;;15.50;13.50;;;;;17.79;65.83;100940.97;4974126;28;45606;-60
2021/07/10 04:56:38;;;;;;;;;14.25;14.00;;;;;17.79;65.74;100946.28;4974343;28;72823;-60
2021/07/10 04:59:04;;;;;;;;;15.00;13.50;;;;;17.79;65.52;100947.09;4975164;28;45406;-60
2021/07/10 05:01:30;;;;;;;;;14.50;11.50;;;;;17.80;65.38;100943.44;4975135;28;45350;-59
2021/07/10 05:03:56;;;;;;;;;15.25;12.25;;;;;17.83;65.59;100944.94;4974693;28;45323;-60
2021/07/10 05:06:21;;;;;;;;;12.25;11.75;;;;;17.86;65.68;100944.59;4974114;28;70772;-60
2021/07/10 05:08:46;;;;;;;;;13.50;11.00;;;;;17.88;65.60;100947.06;4974222;28;66650;-60
2021/07/10 05:11:12;;;;;;;;;11.50;10.50;;;;;17.90;65.38;100950.38;4974142;28;69413;-59
2021/07/10 05:13:37;;;;;;;;;13.25;13.25;;;;;17.93;65.05;100958.84;4973742;28;45600;-60
2021/07/10 05:16:03;;;;;;;;;21.00;18.00;;;;;17.95;65.13;100950.69;4973944;28;72075;-60
2021/07/10 05:18:28;;;;;;;;;12.25;9.75;;;;;17.97;64.90;100947.88;4974208;28;45215;-59
2021/07/10 05:20:53;;;;;;;;;16.50;14.50;;;;;17.99;65.27;100945.88;4974063;28;61892;-59
2021/07/10 05:23:19;;;;;;;;;11.25;11.00;;;;;18.00;64.95;100950.22;4974617;28;50515;-60
2021/07/10 05:25:44;;;;;;;;;13.75;12.50;;;;;18.04;65.31;100955.00;4974181;28;59151;-59
2021/07/10 05:28:09;;;;;;;;;13.50;13.50;;;;;18.06;64.91;100957.47;4974117;28;64172;-59
2021/07/10 05:30:35;;;;;;;;;12.00;12.00;;;;;18.06;64.91;100954.81;4974296;28;62393;-59
2021/07/10 05:33:01;;;;;;;;;16.25;15.50;;;;;18.05;64.94;100951.34;4974902;28;45380;-59
2021/07/10 05:35:27;;;;;;;;;12.50;12.25;;;;;18.07;64.65;100956.47;4974372;28;45936;-59
2021/07/10 05:37:52;;;;;;;;;15.00;13.25;;;;;18.07;64.48;100954.66;4974845;28;45469;-59
2021/07/10 05:40:18;;;;;;;;;13.50;10.50;;;;;18.11;64.51;100943.66;4974527;28;47508;-59
2021/07/10 05:42:43;;;;;;;;;16.00;14.75;;;;;18.11;64.60;100947.13;4974914;28;45390;-59
2021/07/10 05:45:09;;;;;;;;;13.50;11.00;;;;;18.14;65.02;100943.31;4974719;28;46398;-59
2021/07/10 05:47:35;;;;;;;;;14.75;14.75;;;;;18.16;65.13;100943.97;4974603;28;45442;-59
2021/07/10 05:50:00;;;;;;;;;20.75;16.00;;;;;18.15;64.99;100940.47;4974738;28;45366;-59
2021/07/10 05:52:26;;;;;;;;;14.00;13.00;;;;;18.16;65.31;100939.47;4974769;28;45510;-59
2021/07/10 05:54:51;;;;;;;;;21.25;15.50;;;;;18.17;65.69;100943.78;4973666;28;70725;-59
2021/07/10 05:57:16;;;;;;;;;14.00;12.75;;;;;18.17;65.55;100938.47;4973458;28;73243;-59
2021/07/10 05:59:42;;;;;;;;;16.25;15.25;;;;;18.16;65.42;100930.66;4973692;28;66094;-59
2021/07/10 06:02:07;;;;;;;;;12.50;12.25;;;;;18.16;65.40;100931.47;4974452;28;45486;-59
2021/07/10 06:04:34;;;;;;;;;21.25;18.00;;;;;18.17;65.41;100932.31;4973750;28;45308;-59
2021/07/10 06:06:59;;;;;;;;;14.75;12.25;;;;;18.19;65.43;100931.13;4974079;28;45240;-60
2021/07/10 06:09:24;;;;;;;;;13.50;10.25;;;;;18.19;65.63;100933.78;4974036;28;50538;-60
2021/07/10 06:11:50;;;;;;;;;15.25;12.75;;;;;18.19;65.63;100930.31;4976466;28;45243;-60
2021/07/10 06:14:15;;;;;;;;;19.25;15.25;;;;;18.19;65.61;100930.31;4973298;28;67419;-60
2021/07/10 06:16:41;;;;;;;;;16.75;15.75;;;;;18.19;65.66;100923.16;4974302;28;45264;-59
2021/07/10 06:19:06;;;;;;;;;13.00;13.00;;;;;18.20;65.71;100927.47;4973429;28;64665;-59
2021/07/10 06:21:31;;;;;;;;;16.00;13.50;;;;;18.24;65.75;100930.63;4973140;28;64223;-59
2021/07/10 06:23:57;;;;;;;;;13.25;10.00;;;;;18.27;65.96;100926.75;4973440;28;61399;-59
2021/07/10 06:26:22;;;;;;;;;18.00;15.75;;;;;18.28;65.77;100923.91;4974151;28;45277;-59
2021/07/10 06:28:50;;;;;;;;;16.75;16.75;;;;;18.30;65.25;100921.91;4974110;28;45332;-59
2021/07/10 06:31:16;;;;;;;;;24.00;20.00;;;;;18.33;65.21;100920.72;4974191;28;45485;-59
2021/07/10 06:33:42;;;;;;;;;18.00;16.00;;;;;18.37;65.02;100919.38;4973971;28;45445;-59
2021/07/10 06:36:08;;;;;;;;;20.50;15.00;;;;;18.41;65.01;100915.34;4972996;28;73224;-59
2021/07/10 06:38:33;;;;;;;;;17.25;15.75;;;;;18.47;65.16;100924.44;4974217;28;45364;-59
2021/07/10 06:40:58;;;;;;;;;16.75;12.75;;;;;18.52;64.81;100920.25;4973037;28;66640;-59
2021/07/10 06:43:24;;;;;;;;;14.50;12.75;;;;;18.57;64.45;100918.88;4973656;28;46170;-60
2021/07/10 06:45:49;;;;;;;;;13.75;12.75;;;;;18.59;64.40;100908.88;4973868;28;45798;-59
2021/07/10 06:48:14;;;;;;;;;13.75;11.25;;;;;18.63;64.47;100910.16;4972737;28;50429;-59
2021/07/10 06:50:40;;;;;;;;;11.75;10.25;;;;;18.68;64.27;100905.13;4973105;28;63562;-60
2021/07/10 06:53:05;;;;;;;;;14.50;12.75;;;;;18.72;63.87;100906.44;4973282;28;53499;-59
2021/07/10 06:55:31;;;;;;;;;14.75;12.50;;;;;18.76;63.77;100899.72;4973561;28;45369;-60
2021/07/10 06:57:56;;;;;;;;;16.00;14.25;;;;;18.81;63.78;100902.69;4973366;28;46305;-59
2021/07/10 07:00:21;;;;;;;;;15.50;13.75;;;;;18.85;63.74;100905.78;4972919;28;66185;-60
2021/07/10 07:02:47;;;;;;;;;14.50;13.75;;;;;18.88;63.47;100901.97;4973410;28;46162;-59
2021/07/10 07:05:12;;;;;;;;;13.25;12.75;;;;;18.91;63.41;100897.09;4972343;28;45401;-59
2021/07/10 07:07:38;;;;;;;;;12.50;12.50;;;;;18.94;63.50;100887.91;4973582;28;45493;-59
2021/07/10 07:10:05;;;;;;;;;15.00;11.50;;;;;18.97;63.53;100892.91;4973507;28;45497;-60
2021/07/10 07:12:30;;;;;;;;;16.00;12.75;;;;;19.00;63.32;100897.88;4973291;28;46439;-59
2021/07/10 07:14:55;;;;;;;;;12.25;11.25;;;;;19.05;63.20;100895.50;4972471;28;68987;-59
2021/07/10 07:17:21;;;;;;;;;9.25;9.00;;;;;19.10;63.23;100897.59;4973240;28;45406;-60
2021/07/10 07:19:46;;;;;;;;;11.75;11.00;;;;;19.17;62.88;100897.66;4972430;28;62505;-59
2021/07/10 07:22:11;;;;;;;;;11.00;11.00;;;;;19.22;62.92;100895.28;4973158;28;45413;-60
2021/07/10 07:24:37;;;;;;;;;14.75;13.00;;;;;19.27;62.62;100884.91;4972134;28;69275;-60
2021/07/10 07:27:02;;;;;;;;;13.75;10.00;;;;;19.32;62.73;100877.19;4972509;28;61395;-59
2021/07/10 07:29:28;;;;;;;;;12.25;12.25;;;;;19.36;62.48;100883.78;4973163;28;45430;-59
2021/07/10 07:31:53;;;;;;;;;12.25;11.50;;;;;19.38;62.46;100879.09;4970947;28;70217;-60
2021/07/10 07:34:18;;;;;;;;;11.25;11.00;;;;;19.41;62.21;100885.88;4972347;28;63116;-60
2021/07/10 07:36:44;;;;;;;;;9.00;8.00;;;;;19.48;62.35;100881.47;4972187;28;69462;-60
2021/07/10 07:39:09;;;;;;;;;11.50;11.00;;;;;19.56;62.10;100884.03;4972927;28;45463;-60
2021/07/10 07:41:35;;;;;;;;;11.50;10.00;;;;;19.65;61.80;100884.75;4972621;28;49328;-60
2021/07/10 07:44:01;;;;;;;;;9.00;8.75;;;;;19.75;61.20;100880.94;4972632;28;46224;-60
2021/07/10 07:46:26;;;;;;;;;10.50;8.00;;;;;19.84;61.38;100875.34;4973026;28;45791;-59
2021/07/10 07:48:52;;;;;;;;;15.50;12.50;;;;;19.95;60.75;100874.03;4973556;28;45581;-60
2021/07/10 07:51:18;;;;;;;;;13.25;10.00;;;;;20.05;60.65;100871.03;4971777;28;72933;-59
2021/07/10 07:53:43;;;;;;;;;10.75;10.00;;;;;20.15;60.68;100881.38;4972717;28;45390;-59
2021/07/10 07:56:09;;;;;;;;;9.25;9.25;;;;;20.22;60.57;100866.25;4972636;28;45372;-59
2021/07/10 07:58:34;;;;;;;;;10.00;10.00;;;;;20.29;59.97;100872.47;4972547;28;45896;-59
2021/07/10 08:01:00;;;;;;;;;11.75;10.25;;;;;20.35;59.52;100864.72;4975244;28;45334;-59
2021/07/10 08:03:25;;;;;;;;;12.50;10.25;;;;;20.40;59.82;100871.13;4974929;28;59825;-60
2021/07/10 08:05:50;;;;;;;;;20.25;18.25;;;;;20.47;59.50;100865.84;4975163;28;58298;-60
2021/07/10 08:08:16;;;;;;;;;10.50;10.00;;;;;20.52;59.15;100863.44;4974710;28;69029;-59
2021/07/10 08:10:41;;;;;;;;;11.25;10.00;;;;;20.57;58.63;100862.84;4974784;28;67486;-59
2021/07/10 08:13:06;;;;;;;;;12.50;10.50;;;;;20.59;58.85;100864.31;4974772;28;69599;-59
2021/07/10 08:15:32;;;;;;;;;11.25;10.00;;;;;20.64;58.63;100860.22;4974952;28;68200;-59
2021/07/10 08:17:57;;;;;;;;;9.00;8.50;;;;;20.66;58.31;100867.00;4975799;28;45472;-59
2021/07/10 08:20:23;;;;;;;;;10.25;8.00;;;;;20.69;58.06;100866.63;4974361;28;69596;-60
2021/07/10 08:22:48;;;;;;;;;13.00;10.00;;;;;20.72;58.34;100862.72;4974619;28;72187;-59
2021/07/10 08:25:14;;;;;;;;;13.75;12.00;;;;;20.74;58.37;100852.69;4975604;28;45383;-59
2021/07/10 08:27:42;;;;;;;;;9.25;9.25;;;;;20.75;58.45;100852.50;4975603;28;45330;-59
2021/07/10 08:30:08;;;;;;;;;13.00;11.50;;;;;20.80;58.79;100856.47;4975521;28;46077;-59
2021/07/10 08:32:34;;;;;;;;;12.25;12.25;;;;;20.83;58.24;100850.72;4975548;28;45247;-60
2021/07/10 08:34:59;;;;;;;;;13.25;11.00;;;;;20.85;58.67;100860.19;5014044;28;66744;-60
2021/07/10 08:37:24;;;;;;;;;14.25;11.25;;;;;20.88;58.27;100853.63;5056470;27;67401;-59
2021/07/10 08:39:50;;;;;;;;;14.25;11.50;;;;;20.88;58.66;100857.13;5034915;27;57891;-59
2021/07/10 08:42:15;;;;;;;;;10.50;9.25;;;;;20.89;59.39;100855.28;5036455;28;46056;-60
2021/07/10 08:44:41;;;;;;;;;14.00;11.00;;;;;20.90;59.42;100862.28;5012224;27;45506;-60
2021/07/10 08:47:11;;;;;;;;;12.00;12.00;;;;;20.88;59.28;100854.44;5006795;28;45605;-59
2021/07/10 08:49:38;;;;;;;;;12.25;9.50;;;;;20.89;58.63;100847.28;5003138;27;45452;-60
2021/07/10 08:52:03;;;;;;;;;13.25;12.00;;;;;20.93;59.64;100858.38;4982761;28;70161;-59
2021/07/10 08:54:29;;;;;;;;;13.75;12.00;;;;;20.95;60.12;100851.81;4992123;28;45311;-59
2021/07/10 08:56:54;;;;;;;;;9.00;8.50;;;;;20.95;58.77;100843.78;4989091;28;64574;-59
2021/07/10 08:59:19;;;;;;;;;10.50;9.00;;;;;20.96;57.52;100848.09;4979964;28;73392;-59
2021/07/10 09:01:45;;;;;;;;;12.00;9.50;;;;;20.98;58.53;100850.59;5001218;28;64816;-59
2021/07/10 09:04:10;;;;;;;;;12.00;9.00;;;;;20.99;56.98;100846.91;4998295;28;69339;-60
2021/07/10 09:06:35;;;;;;;;;11.00;9.00;;;;;21.00;58.43;100851.22;4984900;28;45970;-60
2021/07/10 09:09:03;;;;;;;;;10.50;9.50;;;;;21.00;58.49;100846.69;5004220;28;45831;-60
2021/07/10 09:11:29;;;;;;;;;9.00;9.00;;;;;21.02;57.87;100850.00;5006012;28;45556;-59
2021/07/10 09:13:55;;;;;;;;;11.75;10.25;;;;;21.01;58.92;100852.88;5008381;28;45508;-59
2021/07/10 09:16:27;;;;;;;;;11.25;9.50;;;;;21.00;58.77;100861.91;5007875;27;45562;-60
2021/07/10 09:18:56;;;;;;;;;10.25;9.75;;;;;20.98;58.67;100858.59;5007461;28;46186;-59
2021/07/10 09:21:44;;;;;;;;;10.25;8.00;;;;;20.97;59.61;100864.97;5024873;27;45457;-60
2021/07/10 09:24:37;;;;;;;;;12.00;8.50;;;;;20.97;59.66;100863.13;5008888;28;45341;-60
2021/07/10 09:27:07;;;;;;;;;7.75;7.75;;;;;20.95;61.31;100864.34;5010851;28;47935;-60
2021/07/10 09:29:46;;;;;;;;;9.25;8.25;;;;;20.92;61.70;100862.06;5025328;28;45488;-59
2021/07/10 09:32:12;;;;;;;;;10.00;10.00;;;;;20.89;62.12;100864.09;5008590;28;45376;-60
2021/07/10 09:34:44;;;;;;;;;10.75;10.00;;;;;20.87;61.96;100871.50;5012473;28;45442;-60
2021/07/10 09:37:14;;;;;;;;;10.25;8.50;;;;;20.81;62.46;100866.94;5012903;28;45224;-59
2021/07/10 09:39:43;;;;;;;;;10.00;10.00;;;;;20.77;62.34;100863.00;5013088;28;46911;-60
2021/07/10 09:42:09;;;;;;;;;10.25;9.25;;;;;20.74;62.47;100868.69;5004044;28;45371;-60
2021/07/10 09:44:47;;;;;;;;;9.50;9.00;;;;;20.68;62.13;100875.66;5004389;28;45400;-59
2021/07/10 09:47:14;;;;;;;;;8.00;7.00;;;;;20.63;61.58;100866.59;5060069;27;45459;-60
2021/07/10 09:49:41;;;;;;;;;6.50;6.00;;;;;20.56;62.10;100851.34;5052493;28;45497;-60
2021/07/10 09:52:09;;;;;;;;;7.25;5.00;;;;;20.52;61.58;100852.75;5046529;28;49110;-59
2021/07/10 09:54:39;;;;;;;;;5.50;4.25;;;;;20.46;61.68;100856.19;5048253;28;45459;-59
2021/07/10 09:57:16;;;;;;;;;5.25;4.50;;;;;20.39;61.04;100844.66;5050341;28;45294;-59
2021/07/10 10:00:07;;;;;;;;;4.00;4.00;;;;;20.31;61.32;100846.44;5037447;28;46112;-60
2021/07/10 10:02:44;;;;;;;;;4.00;4.00;;;;;20.23;61.96;100846.56;5054347;27;45466;-60
2021/07/10 10:05:11;;;;;;;;;6.50;4.50;;;;;20.16;61.15;100845.69;5042584;28;45281;-60
2021/07/10 10:07:41;;;;;;;;;4.00;4.00;;;;;20.09;61.74;100842.97;5030156;28;46343;-60
2021/07/10 10:10:07;;;;;;;;;6.00;5.00;;;;;20.03;62.46;100841.06;5061207;28;47194;-59
2021/07/10 10:12:33;;;;;;;;;5.25;5.25;;;;;19.97;62.60;100845.31;5047756;28;46710;-60
2021/07/10 10:14:58;;;;;;;;;5.50;4.25;;;;;19.95;63.50;100842.03;5022656;28;45318;-59
2021/07/10 10:17:25;;;;;;;;;9.00;5.25;;;;;19.94;63.85;100840.38;5047108;27;45413;-59
2021/07/10 10:19:50;;;;;;;;;6.25;5.00;;;;;19.95;63.56;100828.69;4975168;28;46342;-59
2021/07/10 10:22:17;;;;;;;;;4.50;4.00;;;;;19.99;64.14;100839.78;5038136;27;45418;-59
2021/07/10 10:24:47;;;;;;;;;4.00;4.00;;;;;20.00;64.34;100841.44;4986640;27;45349;-59
2021/07/10 10:27:13;;;;;;;;;4.50;4.50;;;;;20.02;63.24;100842.91;4997054;28;45374;-59
2021/07/10 10:29:38;;;;;;;;;5.00;4.75;;;;;20.04;62.19;100848.03;4987622;28;46232;-60
2021/07/10 10:32:06;;;;;;;;;4.50;4.25;;;;;20.12;62.54;100855.09;5011924;28;45480;-60
2021/07/10 10:34:31;;;;;;;;;4.25;4.00;;;;;20.17;61.37;100850.84;5010999;28;45306;-60
2021/07/10 10:36:57;;;;;;;;;4.00;4.00;;;;;20.24;62.41;100847.41;5005990;28;46829;-59
2021/07/10 10:39:27;;;;;;;;;6.00;4.50;;;;;20.27;59.49;100849.69;5008164;27;53243;-59
2021/07/10 10:42:02;;;;;;;;;6.50;4.00;;;;;20.26;58.96;100846.19;5009762;27;45402;-59
2021/07/10 10:44:41;;;;;;;;;6.00;3.50;;;;;20.29;58.60;100853.81;5022965;28;45580;-60
2021/07/10 10:47:09;;;;;;;;;6.00;3.00;;;;;20.29;59.66;100853.81;5027875;27;45446;-60
2021/07/10 10:49:42;;;;;;;;;3.00;3.00;;;;;20.30;61.14;100844.78;5033316;28;45478;-60
2021/07/10 10:52:29;;;;;;;;;5.00;3.25;;;;;20.30;61.69;100830.63;5036304;28;45771;-59
2021/07/10 10:54:56;;;;;;;;;4.75;4.00;;;;;20.31;60.94;100827.75;5033524;28;45381;-60
2021/07/10 10:57:34;;;;;;;;;4.25;3.75;;;;;20.39;58.76;100825.97;5041149;28;45635;-59
2021/07/10 11:00:00;;;;;;;;;5.75;4.00;;;;;20.44;58.38;100820.88;5044505;28;46616;-59
2021/07/10 11:02:25;;;;;;;;;4.25;3.75;;;;;20.48;57.23;100822.13;5050945;28;45454;-59
2021/07/10 11:04:56;;;;;;;;;6.00;5.33;;;;;20.52;56.76;100828.72;5035952;27;45434;-59
2021/07/10 11:07:25;;;;;;;;;4.00;4.00;;;;;20.57;55.40;100820.13;5059030;27;45516;-59